sensor_id;sensor_type;location;lat;lon;timestamp;temperature;humidity
33837;DHT22;20140;49.356;8.812;2023-01-08T00:01:41;5.00;99.90
33837;DHT22;20140;49.356;8.812;2023-01-08T00:04:07;5.00;99.90
33837;DHT22;20140;49.356;8.812;2023-01-08T00:06:32;5.00;99.90
33837;DHT22;20140;49.356;8.812;2023-01-08T00:08:58;5.00;99.90
33837;DHT22;20140;49.356;8.812;2023-01-08T00:11:24;5.00;99.90
33837;DHT22;20140;49.356;8.812;2023-01-08T00:13:49;5.00;99.90
33837;DHT22;20140;49.356;8.812;2023-01-08T00:16:16;5.00;99.90
33837;DHT22;20140;49.356;8.812;2023-01-08T00:18:43;4.90;99.90
33837;DHT22;20140;49.356;8.812;2023-01-08T00:21:08;5.00;99.90
33837;DHT22;20140;49.356;8.812;2023-01-08T00:23:36;5.10;99.90
33837;DHT22;20140;49.356;8.812;2023-01-08T00:26:05;5.00;99.90
33837;DHT22;20140;49.356;8.812;2023-01-08T00:28:32;5.00;99.90
33837;DHT22;20140;49.356;8.812;2023-01-08T00:30:58;5.00;99.90
33837;DHT22;20140;49.356;8.812;2023-01-08T00:33:23;5.00;99.90
33837;DHT22;20140;49.356;8.812;2023-01-08T00:35:49;5.00;99.90
33837;DHT22;20140;49.356;8.812;2023-01-08T00:38:15;4.90;99.90
33837;DHT22;20140;49.356;8.812;2023-01-08T00:40:40;5.00;99.90
33837;DHT22;20140;49.356;8.812;2023-01-08T00:43:07;5.20;99.90
33837;DHT22;20140;49.356;8.812;2023-01-08T00:45:33;5.20;99.90
33837;DHT22;20140;49.356;8.812;2023-01-08T00:47:58;5.20;99.90
33837;DHT22;20140;49.356;8.812;2023-01-08T00:50:24;5.10;99.90
33837;DHT22;20140;49.356;8.812;2023-01-08T00:52:50;5.10;99.90
33837;DHT22;20140;49.356;8.812;2023-01-08T00:55:16;5.10;99.90
33837;DHT22;20140;49.356;8.812;2023-01-08T00:57:41;5.10;99.90
33837;DHT22;20140;49.356;8.812;2023-01-08T01:00:10;5.10;99.90
33837;DHT22;20140;49.356;8.812;2023-01-08T01:02:37;5.10;99.90
33837;DHT22;20140;49.356;8.812;2023-01-08T01:05:03;5.10;99.90
33837;DHT22;20140;49.356;8.812;2023-01-08T01:07:29;5.10;99.90
33837;DHT22;20140;49.356;8.812;2023-01-08T01:09:55;5.10;99.90
33837;DHT22;20140;49.356;8.812;2023-01-08T01:12:20;5.10;99.90
33837;DHT22;20140;49.356;8.812;2023-01-08T01:14:46;5.10;99.90
33837;DHT22;20140;49.356;8.812;2023-01-08T01:17:12;5.10;99.90
33837;DHT22;20140;49.356;8.812;2023-01-08T01:19:37;5.10;99.90
33837;DHT22;20140;49.356;8.812;2023-01-08T01:22:03;5.20;99.90
33837;DHT22;20140;49.356;8.812;2023-01-08T01:24:29;5.20;99.90
33837;DHT22;20140;49.356;8.812;2023-01-08T01:26:54;5.20;99.90
33837;DHT22;20140;49.356;8.812;2023-01-08T01:29:22;5.10;99.90
33837;DHT22;20140;49.356;8.812;2023-01-08T01:31:47;5.10;99.90
33837;DHT22;20140;49.356;8.812;2023-01-08T01:34:13;5.20;99.90
33837;DHT22;20140;49.356;8.812;2023-01-08T01:36:38;5.20;99.90
33837;DHT22;20140;49.356;8.812;2023-01-08T01:39:04;5.20;99.90
33837;DHT22;20140;49.356;8.812;2023-01-08T01:41:34;5.20;99.90
33837;DHT22;20140;49.356;8.812;2023-01-08T01:47:28;5.20;99.90
33837;DHT22;20140;49.356;8.812;2023-01-08T01:53:02;5.30;99.90
33837;DHT22;20140;49.356;8.812;2023-01-08T01:55:30;5.30;99.90
33837;DHT22;20140;49.356;8.812;2023-01-08T01:58:13;5.30;99.90
33837;DHT22;20140;49.356;8.812;2023-01-08T02:00:40;5.20;99.90
33837;DHT22;20140;49.356;8.812;2023-01-08T02:03:07;5.30;99.90
33837;DHT22;20140;49.356;8.812;2023-01-08T02:05:45;5.30;99.90
33837;DHT22;20140;49.356;8.812;2023-01-08T02:08:24;5.30;99.90
33837;DHT22;20140;49.356;8.812;2023-01-08T02:11:00;5.30;99.90
33837;DHT22;20140;49.356;8.812;2023-01-08T02:13:32;5.40;99.90
33837;DHT22;20140;49.356;8.812;2023-01-08T02:16:08;5.50;99.90
33837;DHT22;20140;49.356;8.812;2023-01-08T02:18:57;5.50;99.90
33837;DHT22;20140;49.356;8.812;2023-01-08T02:21:42;5.50;99.90
33837;DHT22;20140;49.356;8.812;2023-01-08T02:26:35;5.50;99.90
33837;DHT22;20140;49.356;8.812;2023-01-08T02:29:15;5.50;99.90
33837;DHT22;20140;49.356;8.812;2023-01-08T02:31:42;5.50;99.90
33837;DHT22;20140;49.356;8.812;2023-01-08T02:34:09;5.50;99.90
33837;DHT22;20140;49.356;8.812;2023-01-08T02:36:47;5.50;99.90
33837;DHT22;20140;49.356;8.812;2023-01-08T02:42:03;5.50;99.90
33837;DHT22;20140;49.356;8.812;2023-01-08T02:44:44;5.40;99.90
33837;DHT22;20140;49.356;8.812;2023-01-08T02:47:27;5.40;99.90
33837;DHT22;20140;49.356;8.812;2023-01-08T02:50:15;5.40;99.90
33837;DHT22;20140;49.356;8.812;2023-01-08T02:55:40;5.40;99.90
33837;DHT22;20140;49.356;8.812;2023-01-08T02:58:06;5.30;99.90
33837;DHT22;20140;49.356;8.812;2023-01-08T03:00:32;5.40;99.90
33837;DHT22;20140;49.356;8.812;2023-01-08T03:03:09;5.30;99.90
33837;DHT22;20140;49.356;8.812;2023-01-08T03:05:39;5.30;99.90
33837;DHT22;20140;49.356;8.812;2023-01-08T03:08:05;5.30;99.90
33837;DHT22;20140;49.356;8.812;2023-01-08T03:10:31;5.40;99.90
33837;DHT22;20140;49.356;8.812;2023-01-08T03:13:13;5.40;99.90
33837;DHT22;20140;49.356;8.812;2023-01-08T03:15:55;5.40;99.90
33837;DHT22;20140;49.356;8.812;2023-01-08T03:18:30;5.50;99.90
33837;DHT22;20140;49.356;8.812;2023-01-08T03:21:00;5.60;99.90
33837;DHT22;20140;49.356;8.812;2023-01-08T03:23:27;5.70;99.90
33837;DHT22;20140;49.356;8.812;2023-01-08T03:25:53;5.70;99.90
33837;DHT22;20140;49.356;8.812;2023-01-08T03:28:25;5.70;99.90
33837;DHT22;20140;49.356;8.812;2023-01-08T03:30:54;5.60;99.90
33837;DHT22;20140;49.356;8.812;2023-01-08T03:33:22;5.60;99.90
33837;DHT22;20140;49.356;8.812;2023-01-08T03:35:50;5.60;99.90
33837;DHT22;20140;49.356;8.812;2023-01-08T03:38:30;5.60;99.90
33837;DHT22;20140;49.356;8.812;2023-01-08T03:41:02;5.60;99.90
33837;DHT22;20140;49.356;8.812;2023-01-08T03:43:29;5.50;99.90
33837;DHT22;20140;49.356;8.812;2023-01-08T03:45:58;5.50;99.90
33837;DHT22;20140;49.356;8.812;2023-01-08T03:48:27;5.50;99.90
33837;DHT22;20140;49.356;8.812;2023-01-08T03:50:54;5.50;99.90
33837;DHT22;20140;49.356;8.812;2023-01-08T03:53:19;5.60;99.90
33837;DHT22;20140;49.356;8.812;2023-01-08T03:55:45;5.60;99.90
33837;DHT22;20140;49.356;8.812;2023-01-08T03:58:11;5.50;99.90
33837;DHT22;20140;49.356;8.812;2023-01-08T04:00:36;5.60;99.90
33837;DHT22;20140;49.356;8.812;2023-01-08T04:03:02;5.60;99.90
33837;DHT22;20140;49.356;8.812;2023-01-08T04:05:27;5.60;99.90
33837;DHT22;20140;49.356;8.812;2023-01-08T04:07:56;5.70;99.90
33837;DHT22;20140;49.356;8.812;2023-01-08T04:10:23;5.70;99.90
33837;DHT22;20140;49.356;8.812;2023-01-08T04:12:49;5.70;99.90
33837;DHT22;20140;49.356;8.812;2023-01-08T04:15:15;5.70;99.90
33837;DHT22;20140;49.356;8.812;2023-01-08T04:17:40;5.60;99.90
33837;DHT22;20140;49.356;8.812;2023-01-08T04:20:06;5.50;99.90
33837;DHT22;20140;49.356;8.812;2023-01-08T04:22:32;5.60;99.90
33837;DHT22;20140;49.356;8.812;2023-01-08T04:24:57;5.70;99.90
33837;DHT22;20140;49.356;8.812;2023-01-08T04:27:23;5.70;99.90
33837;DHT22;20140;49.356;8.812;2023-01-08T04:29:48;5.70;99.90
33837;DHT22;20140;49.356;8.812;2023-01-08T04:32:14;5.70;99.90
33837;DHT22;20140;49.356;8.812;2023-01-08T04:34:40;5.80;99.90
33837;DHT22;20140;49.356;8.812;2023-01-08T04:37:05;5.70;99.90
33837;DHT22;20140;49.356;8.812;2023-01-08T04:39:31;5.80;99.90
33837;DHT22;20140;49.356;8.812;2023-01-08T04:41:56;5.70;99.90
33837;DHT22;20140;49.356;8.812;2023-01-08T04:44:22;5.80;99.90
33837;DHT22;20140;49.356;8.812;2023-01-08T04:46:47;5.80;99.90
33837;DHT22;20140;49.356;8.812;2023-01-08T04:49:13;5.80;99.90
33837;DHT22;20140;49.356;8.812;2023-01-08T04:51:39;5.90;99.90
33837;DHT22;20140;49.356;8.812;2023-01-08T04:54:04;5.90;99.90
33837;DHT22;20140;49.356;8.812;2023-01-08T04:56:30;5.90;99.90
33837;DHT22;20140;49.356;8.812;2023-01-08T04:58:56;5.90;99.90
33837;DHT22;20140;49.356;8.812;2023-01-08T05:01:23;5.90;99.90
33837;DHT22;20140;49.356;8.812;2023-01-08T05:04:10;5.80;99.90
33837;DHT22;20140;49.356;8.812;2023-01-08T05:06:35;5.90;99.90
33837;DHT22;20140;49.356;8.812;2023-01-08T05:09:01;5.90;99.90
33837;DHT22;20140;49.356;8.812;2023-01-08T05:11:27;5.80;99.90
33837;DHT22;20140;49.356;8.812;2023-01-08T05:13:53;5.80;99.90
33837;DHT22;20140;49.356;8.812;2023-01-08T05:16:19;5.90;99.90
33837;DHT22;20140;49.356;8.812;2023-01-08T05:18:45;5.90;99.90
33837;DHT22;20140;49.356;8.812;2023-01-08T05:21:11;5.90;99.90
33837;DHT22;20140;49.356;8.812;2023-01-08T05:23:37;5.90;99.90
33837;DHT22;20140;49.356;8.812;2023-01-08T05:26:05;5.90;99.90
33837;DHT22;20140;49.356;8.812;2023-01-08T05:28:31;5.90;99.90
33837;DHT22;20140;49.356;8.812;2023-01-08T05:30:57;6.00;99.90
33837;DHT22;20140;49.356;8.812;2023-01-08T05:33:23;6.00;99.90
33837;DHT22;20140;49.356;8.812;2023-01-08T05:35:49;6.00;99.90
33837;DHT22;20140;49.356;8.812;2023-01-08T05:38:14;6.00;99.90
33837;DHT22;20140;49.356;8.812;2023-01-08T05:40:40;6.00;99.90
33837;DHT22;20140;49.356;8.812;2023-01-08T05:43:06;6.00;99.90
33837;DHT22;20140;49.356;8.812;2023-01-08T05:45:32;6.00;99.90
33837;DHT22;20140;49.356;8.812;2023-01-08T05:47:58;6.00;99.90
33837;DHT22;20140;49.356;8.812;2023-01-08T05:50:23;6.00;99.90
33837;DHT22;20140;49.356;8.812;2023-01-08T05:52:49;6.00;99.90
33837;DHT22;20140;49.356;8.812;2023-01-08T05:55:14;6.00;99.90
33837;DHT22;20140;49.356;8.812;2023-01-08T05:57:40;6.00;99.90
33837;DHT22;20140;49.356;8.812;2023-01-08T06:00:07;6.00;99.90
33837;DHT22;20140;49.356;8.812;2023-01-08T06:02:33;6.10;99.90
33837;DHT22;20140;49.356;8.812;2023-01-08T06:04:58;6.10;99.90
33837;DHT22;20140;49.356;8.812;2023-01-08T06:07:24;6.10;99.90
33837;DHT22;20140;49.356;8.812;2023-01-08T06:09:49;6.10;99.90
33837;DHT22;20140;49.356;8.812;2023-01-08T06:12:15;6.10;99.90
33837;DHT22;20140;49.356;8.812;2023-01-08T06:14:40;6.10;99.90
33837;DHT22;20140;49.356;8.812;2023-01-08T06:17:06;6.10;99.90
33837;DHT22;20140;49.356;8.812;2023-01-08T06:19:32;6.10;99.90
33837;DHT22;20140;49.356;8.812;2023-01-08T06:21:57;6.10;99.90
33837;DHT22;20140;49.356;8.812;2023-01-08T06:24:23;6.20;99.90
33837;DHT22;20140;49.356;8.812;2023-01-08T06:26:48;6.10;99.90
33837;DHT22;20140;49.356;8.812;2023-01-08T06:29:14;6.10;99.90
33837;DHT22;20140;49.356;8.812;2023-01-08T06:31:39;6.10;99.90
33837;DHT22;20140;49.356;8.812;2023-01-08T06:34:05;6.10;99.90
33837;DHT22;20140;49.356;8.812;2023-01-08T06:36:30;6.10;99.90
33837;DHT22;20140;49.356;8.812;2023-01-08T06:38:56;6.10;99.90
33837;DHT22;20140;49.356;8.812;2023-01-08T06:41:21;6.10;99.90
33837;DHT22;20140;49.356;8.812;2023-01-08T06:43:47;6.10;99.90
33837;DHT22;20140;49.356;8.812;2023-01-08T06:46:12;6.20;99.90
33837;DHT22;20140;49.356;8.812;2023-01-08T06:48:39;6.20;99.90
33837;DHT22;20140;49.356;8.812;2023-01-08T06:51:05;6.20;99.90
33837;DHT22;20140;49.356;8.812;2023-01-08T06:53:30;6.20;99.90
33837;DHT22;20140;49.356;8.812;2023-01-08T06:55:56;6.20;99.90
33837;DHT22;20140;49.356;8.812;2023-01-08T06:58:24;6.20;99.90
33837;DHT22;20140;49.356;8.812;2023-01-08T07:00:49;6.20;99.90
33837;DHT22;20140;49.356;8.812;2023-01-08T07:03:15;6.20;99.90
33837;DHT22;20140;49.356;8.812;2023-01-08T07:05:41;6.20;99.90
33837;DHT22;20140;49.356;8.812;2023-01-08T07:08:13;6.20;99.90
33837;DHT22;20140;49.356;8.812;2023-01-08T07:10:39;6.20;99.90
33837;DHT22;20140;49.356;8.812;2023-01-08T07:13:05;6.20;99.90
33837;DHT22;20140;49.356;8.812;2023-01-08T07:15:32;6.10;99.90
33837;DHT22;20140;49.356;8.812;2023-01-08T07:17:57;6.10;99.90
33837;DHT22;20140;49.356;8.812;2023-01-08T07:20:23;6.10;99.90
33837;DHT22;20140;49.356;8.812;2023-01-08T07:22:48;6.20;99.90
33837;DHT22;20140;49.356;8.812;2023-01-08T07:25:14;6.20;99.90
33837;DHT22;20140;49.356;8.812;2023-01-08T07:27:39;6.20;99.90
33837;DHT22;20140;49.356;8.812;2023-01-08T07:30:05;6.20;99.90
33837;DHT22;20140;49.356;8.812;2023-01-08T07:32:31;6.20;99.90
33837;DHT22;20140;49.356;8.812;2023-01-08T07:34:56;6.20;99.90
33837;DHT22;20140;49.356;8.812;2023-01-08T07:37:24;6.20;99.90
33837;DHT22;20140;49.356;8.812;2023-01-08T07:39:49;6.10;99.90
33837;DHT22;20140;49.356;8.812;2023-01-08T07:42:17;6.10;99.90
33837;DHT22;20140;49.356;8.812;2023-01-08T07:44:43;6.10;99.90
33837;DHT22;20140;49.356;8.812;2023-01-08T07:47:08;6.20;99.90
33837;DHT22;20140;49.356;8.812;2023-01-08T07:49:34;6.20;99.90
33837;DHT22;20140;49.356;8.812;2023-01-08T07:51:59;6.30;99.90
33837;DHT22;20140;49.356;8.812;2023-01-08T07:54:24;6.30;99.90
33837;DHT22;20140;49.356;8.812;2023-01-08T07:56:53;6.30;99.90
33837;DHT22;20140;49.356;8.812;2023-01-08T07:59:19;6.30;99.90
33837;DHT22;20140;49.356;8.812;2023-01-08T08:01:44;6.20;99.90
33837;DHT22;20140;49.356;8.812;2023-01-08T08:04:09;6.30;99.90
33837;DHT22;20140;49.356;8.812;2023-01-08T08:06:35;6.30;99.90
33837;DHT22;20140;49.356;8.812;2023-01-08T08:09:01;6.20;99.90
33837;DHT22;20140;49.356;8.812;2023-01-08T08:11:28;6.20;99.90
33837;DHT22;20140;49.356;8.812;2023-01-08T08:13:53;6.20;99.90
33837;DHT22;20140;49.356;8.812;2023-01-08T08:16:19;6.20;99.90
33837;DHT22;20140;49.356;8.812;2023-01-08T08:18:44;6.20;99.90
33837;DHT22;20140;49.356;8.812;2023-01-08T08:21:10;6.30;99.90
33837;DHT22;20140;49.356;8.812;2023-01-08T08:23:35;6.30;99.90
33837;DHT22;20140;49.356;8.812;2023-01-08T08:26:02;6.40;99.90
33837;DHT22;20140;49.356;8.812;2023-01-08T08:28:28;6.40;99.90
33837;DHT22;20140;49.356;8.812;2023-01-08T08:30:54;6.40;99.90
33837;DHT22;20140;49.356;8.812;2023-01-08T08:33:19;6.40;99.90
33837;DHT22;20140;49.356;8.812;2023-01-08T08:35:48;6.40;99.90
33837;DHT22;20140;49.356;8.812;2023-01-08T08:38:15;6.40;99.90
33837;DHT22;20140;49.356;8.812;2023-01-08T08:40:41;6.40;99.90
33837;DHT22;20140;49.356;8.812;2023-01-08T08:43:08;6.40;99.90
33837;DHT22;20140;49.356;8.812;2023-01-08T08:45:34;6.40;99.90
33837;DHT22;20140;49.356;8.812;2023-01-08T08:48:00;6.40;99.90
33837;DHT22;20140;49.356;8.812;2023-01-08T08:50:25;6.40;99.90
33837;DHT22;20140;49.356;8.812;2023-01-08T08:52:51;6.40;99.90
33837;DHT22;20140;49.356;8.812;2023-01-08T08:55:16;6.40;99.90
33837;DHT22;20140;49.356;8.812;2023-01-08T08:57:43;6.50;99.90
33837;DHT22;20140;49.356;8.812;2023-01-08T09:00:10;6.50;99.90
33837;DHT22;20140;49.356;8.812;2023-01-08T09:02:35;6.50;99.90
33837;DHT22;20140;49.356;8.812;2023-01-08T09:05:01;6.50;99.90
33837;DHT22;20140;49.356;8.812;2023-01-08T09:07:27;6.50;99.90
33837;DHT22;20140;49.356;8.812;2023-01-08T09:09:52;6.50;99.90
33837;DHT22;20140;49.356;8.812;2023-01-08T09:12:18;6.50;99.90
33837;DHT22;20140;49.356;8.812;2023-01-08T09:14:43;6.60;99.90
33837;DHT22;20140;49.356;8.812;2023-01-08T09:17:09;6.60;99.90
33837;DHT22;20140;49.356;8.812;2023-01-08T09:19:34;6.70;99.90
33837;DHT22;20140;49.356;8.812;2023-01-08T09:22:01;6.60;99.90
33837;DHT22;20140;49.356;8.812;2023-01-08T09:24:27;6.70;99.90
33837;DHT22;20140;49.356;8.812;2023-01-08T09:26:53;6.70;99.90
33837;DHT22;20140;49.356;8.812;2023-01-08T09:29:19;6.70;99.90
33837;DHT22;20140;49.356;8.812;2023-01-08T09:31:45;6.70;99.90
33837;DHT22;20140;49.356;8.812;2023-01-08T09:34:11;6.70;99.90
33837;DHT22;20140;49.356;8.812;2023-01-08T09:36:36;6.80;99.90
33837;DHT22;20140;49.356;8.812;2023-01-08T09:39:02;6.90;99.90
33837;DHT22;20140;49.356;8.812;2023-01-08T09:41:31;6.90;99.90
33837;DHT22;20140;49.356;8.812;2023-01-08T09:43:58;6.90;99.90
33837;DHT22;20140;49.356;8.812;2023-01-08T09:46:26;7.00;99.90
33837;DHT22;20140;49.356;8.812;2023-01-08T09:48:55;7.00;99.90
33837;DHT22;20140;49.356;8.812;2023-01-08T09:51:30;7.00;99.90
33837;DHT22;20140;49.356;8.812;2023-01-08T09:53:56;7.10;99.90
33837;DHT22;20140;49.356;8.812;2023-01-08T09:56:22;7.10;99.90
33837;DHT22;20140;49.356;8.812;2023-01-08T09:58:54;7.20;99.90
33837;DHT22;20140;49.356;8.812;2023-01-08T10:01:23;7.30;99.90
33837;DHT22;20140;49.356;8.812;2023-01-08T10:04:09;7.40;99.90
33837;DHT22;20140;49.356;8.812;2023-01-08T10:06:39;7.40;99.90
33837;DHT22;20140;49.356;8.812;2023-01-08T10:09:04;7.50;99.90
33837;DHT22;20140;49.356;8.812;2023-01-08T10:11:38;7.50;99.90
33837;DHT22;20140;49.356;8.812;2023-01-08T10:14:13;7.60;99.90
33837;DHT22;20140;49.356;8.812;2023-01-08T10:16:45;7.70;99.90
33837;DHT22;20140;49.356;8.812;2023-01-08T10:19:11;7.70;99.90
33837;DHT22;20140;49.356;8.812;2023-01-08T10:21:39;7.80;99.90
33837;DHT22;20140;49.356;8.812;2023-01-08T10:24:05;8.00;99.90
33837;DHT22;20140;49.356;8.812;2023-01-08T10:26:34;8.10;99.90
33837;DHT22;20140;49.356;8.812;2023-01-08T10:29:16;8.20;99.90
33837;DHT22;20140;49.356;8.812;2023-01-08T10:31:45;8.30;99.90
33837;DHT22;20140;49.356;8.812;2023-01-08T10:34:30;8.40;99.90
33837;DHT22;20140;49.356;8.812;2023-01-08T10:36:57;8.50;99.90
33837;DHT22;20140;49.356;8.812;2023-01-08T10:39:26;8.50;99.90
33837;DHT22;20140;49.356;8.812;2023-01-08T10:41:55;8.50;99.90
33837;DHT22;20140;49.356;8.812;2023-01-08T10:44:22;8.60;99.90
33837;DHT22;20140;49.356;8.812;2023-01-08T10:46:51;8.60;99.90
33837;DHT22;20140;49.356;8.812;2023-01-08T10:49:34;8.50;99.90
33837;DHT22;20140;49.356;8.812;2023-01-08T10:52:01;8.50;99.90
33837;DHT22;20140;49.356;8.812;2023-01-08T10:54:33;8.50;99.90
33837;DHT22;20140;49.356;8.812;2023-01-08T10:56:59;8.40;99.90
33837;DHT22;20140;49.356;8.812;2023-01-08T10:59:25;8.50;99.90
33837;DHT22;20140;49.356;8.812;2023-01-08T11:01:53;8.50;99.90
33837;DHT22;20140;49.356;8.812;2023-01-08T11:04:29;8.70;99.90
33837;DHT22;20140;49.356;8.812;2023-01-08T11:07:03;9.00;99.90
33837;DHT22;20140;49.356;8.812;2023-01-08T11:09:32;9.10;99.90
33837;DHT22;20140;49.356;8.812;2023-01-08T11:11:58;9.30;99.90
33837;DHT22;20140;49.356;8.812;2023-01-08T11:14:34;9.40;99.90
33837;DHT22;20140;49.356;8.812;2023-01-08T11:17:01;9.40;99.90
33837;DHT22;20140;49.356;8.812;2023-01-08T11:19:33;9.50;99.90
33837;DHT22;20140;49.356;8.812;2023-01-08T11:22:04;9.50;99.90
33837;DHT22;20140;49.356;8.812;2023-01-08T11:24:35;9.60;99.90
33837;DHT22;20140;49.356;8.812;2023-01-08T11:32:56;9.80;99.90
33837;DHT22;20140;49.356;8.812;2023-01-08T11:35:27;10.00;99.90
33837;DHT22;20140;49.356;8.812;2023-01-08T11:37:56;10.10;99.90
33837;DHT22;20140;49.356;8.812;2023-01-08T11:43:23;10.30;99.90
33837;DHT22;20140;49.356;8.812;2023-01-08T11:49:12;10.30;99.90
33837;DHT22;20140;49.356;8.812;2023-01-08T12:05:31;10.80;99.90
33837;DHT22;20140;49.356;8.812;2023-01-08T12:08:15;10.80;99.90
33837;DHT22;20140;49.356;8.812;2023-01-08T12:11:22;10.60;99.90
33837;DHT22;20140;49.356;8.812;2023-01-08T12:13:53;10.60;99.90
33837;DHT22;20140;49.356;8.812;2023-01-08T12:19:25;10.50;99.90
33837;DHT22;20140;49.356;8.812;2023-01-08T12:22:09;10.50;99.90
33837;DHT22;20140;49.356;8.812;2023-01-08T12:25:02;10.60;99.90
33837;DHT22;20140;49.356;8.812;2023-01-08T12:27:36;10.50;99.90
33837;DHT22;20140;49.356;8.812;2023-01-08T12:32:55;10.80;99.90
33837;DHT22;20140;49.356;8.812;2023-01-08T12:35:30;10.80;99.90
33837;DHT22;20140;49.356;8.812;2023-01-08T12:38:03;10.80;99.90
33837;DHT22;20140;49.356;8.812;2023-01-08T12:41:17;10.70;99.90
33837;DHT22;20140;49.356;8.812;2023-01-08T12:44:02;10.70;99.90
33837;DHT22;20140;49.356;8.812;2023-01-08T12:46:34;10.70;99.90
33837;DHT22;20140;49.356;8.812;2023-01-08T12:49:02;10.60;99.90
33837;DHT22;20140;49.356;8.812;2023-01-08T12:51:40;10.40;99.90
33837;DHT22;20140;49.356;8.812;2023-01-08T12:54:32;10.30;99.90
33837;DHT22;20140;49.356;8.812;2023-01-08T12:57:15;10.30;99.90
33837;DHT22;20140;49.356;8.812;2023-01-08T12:59:49;10.30;99.90
33837;DHT22;20140;49.356;8.812;2023-01-08T13:07:45;10.40;99.90
33837;DHT22;20140;49.356;8.812;2023-01-08T13:10:23;10.30;99.90
33837;DHT22;20140;49.356;8.812;2023-01-08T13:12:52;10.50;99.90
33837;DHT22;20140;49.356;8.812;2023-01-08T13:15:21;10.50;99.90
33837;DHT22;20140;49.356;8.812;2023-01-08T13:17:48;10.40;99.90
33837;DHT22;20140;49.356;8.812;2023-01-08T13:20:29;10.30;99.90
33837;DHT22;20140;49.356;8.812;2023-01-08T13:23:00;10.20;99.90
33837;DHT22;20140;49.356;8.812;2023-01-08T13:25:34;10.10;99.90
33837;DHT22;20140;49.356;8.812;2023-01-08T13:28:17;10.10;99.90
33837;DHT22;20140;49.356;8.812;2023-01-08T13:30:51;10.00;99.90
33837;DHT22;20140;49.356;8.812;2023-01-08T13:33:38;10.10;99.90
33837;DHT22;20140;49.356;8.812;2023-01-08T13:36:29;10.10;99.90
33837;DHT22;20140;49.356;8.812;2023-01-08T13:41:55;10.10;99.90
33837;DHT22;20140;49.356;8.812;2023-01-08T13:44:26;10.20;99.90
33837;DHT22;20140;49.356;8.812;2023-01-08T13:46:57;10.10;99.90
33837;DHT22;20140;49.356;8.812;2023-01-08T13:49:45;10.10;99.90
33837;DHT22;20140;49.356;8.812;2023-01-08T13:54:55;10.30;99.90
33837;DHT22;20140;49.356;8.812;2023-01-08T13:57:21;10.30;99.90
33837;DHT22;20140;49.356;8.812;2023-01-08T13:59:51;10.20;99.90
33837;DHT22;20140;49.356;8.812;2023-01-08T14:02:29;10.20;99.90
33837;DHT22;20140;49.356;8.812;2023-01-08T14:04:56;10.20;99.90
33837;DHT22;20140;49.356;8.812;2023-01-08T14:07:22;10.20;99.90
33837;DHT22;20140;49.356;8.812;2023-01-08T14:09:49;10.10;99.90
33837;DHT22;20140;49.356;8.812;2023-01-08T14:12:20;10.10;99.90
33837;DHT22;20140;49.356;8.812;2023-01-08T14:14:55;10.10;99.90
33837;DHT22;20140;49.356;8.812;2023-01-08T14:17:29;10.10;99.90
33837;DHT22;20140;49.356;8.812;2023-01-08T14:19:55;10.10;99.90
33837;DHT22;20140;49.356;8.812;2023-01-08T14:22:26;10.10;99.90
33837;DHT22;20140;49.356;8.812;2023-01-08T14:24:56;10.10;99.90
33837;DHT22;20140;49.356;8.812;2023-01-08T14:27:26;10.10;99.90
33837;DHT22;20140;49.356;8.812;2023-01-08T14:29:53;10.10;99.90
33837;DHT22;20140;49.356;8.812;2023-01-08T14:32:21;10.10;99.90
33837;DHT22;20140;49.356;8.812;2023-01-08T14:34:49;10.00;99.90
33837;DHT22;20140;49.356;8.812;2023-01-08T14:37:16;10.10;99.90
33837;DHT22;20140;49.356;8.812;2023-01-08T14:39:43;10.30;99.90
33837;DHT22;20140;49.356;8.812;2023-01-08T14:42:17;10.30;99.90
33837;DHT22;20140;49.356;8.812;2023-01-08T14:45:28;10.30;99.90
33837;DHT22;20140;49.356;8.812;2023-01-08T14:47:55;10.10;99.90
33837;DHT22;20140;49.356;8.812;2023-01-08T14:50:35;10.10;99.90
33837;DHT22;20140;49.356;8.812;2023-01-08T14:53:07;10.00;99.90
33837;DHT22;20140;49.356;8.812;2023-01-08T14:55:36;10.00;99.90
33837;DHT22;20140;49.356;8.812;2023-01-08T14:58:16;10.00;99.90
33837;DHT22;20140;49.356;8.812;2023-01-08T15:00:49;10.20;99.90
33837;DHT22;20140;49.356;8.812;2023-01-08T15:03:43;10.20;99.90
33837;DHT22;20140;49.356;8.812;2023-01-08T15:06:09;10.10;99.90
33837;DHT22;20140;49.356;8.812;2023-01-08T15:08:43;10.10;99.90
33837;DHT22;20140;49.356;8.812;2023-01-08T15:13:44;10.00;99.90
33837;DHT22;20140;49.356;8.812;2023-01-08T15:18:59;9.90;99.90
33837;DHT22;20140;49.356;8.812;2023-01-08T15:21:25;9.80;99.90
33837;DHT22;20140;49.356;8.812;2023-01-08T15:23:53;9.80;99.90
33837;DHT22;20140;49.356;8.812;2023-01-08T15:26:20;9.80;99.90
33837;DHT22;20140;49.356;8.812;2023-01-08T15:28:55;9.70;99.90
33837;DHT22;20140;49.356;8.812;2023-01-08T15:31:44;9.70;99.90
33837;DHT22;20140;49.356;8.812;2023-01-08T15:34:10;9.70;99.90
33837;DHT22;20140;49.356;8.812;2023-01-08T15:36:36;9.60;99.90
33837;DHT22;20140;49.356;8.812;2023-01-08T15:39:02;9.60;99.90
33837;DHT22;20140;49.356;8.812;2023-01-08T15:41:36;9.60;99.90
33837;DHT22;20140;49.356;8.812;2023-01-08T15:44:20;9.70;99.90
33837;DHT22;20140;49.356;8.812;2023-01-08T15:46:46;9.60;99.90
33837;DHT22;20140;49.356;8.812;2023-01-08T15:49:12;9.60;99.90
33837;DHT22;20140;49.356;8.812;2023-01-08T15:51:42;9.60;99.90
33837;DHT22;20140;49.356;8.812;2023-01-08T15:54:11;9.60;99.90
33837;DHT22;20140;49.356;8.812;2023-01-08T15:56:37;9.50;99.90
33837;DHT22;20140;49.356;8.812;2023-01-08T15:59:03;9.50;99.90
33837;DHT22;20140;49.356;8.812;2023-01-08T16:01:29;9.50;99.90
33837;DHT22;20140;49.356;8.812;2023-01-08T16:03:56;9.50;99.90
33837;DHT22;20140;49.356;8.812;2023-01-08T16:06:21;9.50;99.90
33837;DHT22;20140;49.356;8.812;2023-01-08T16:08:47;9.40;99.90
33837;DHT22;20140;49.356;8.812;2023-01-08T16:11:15;9.40;99.90
33837;DHT22;20140;49.356;8.812;2023-01-08T16:13:41;9.30;99.90
33837;DHT22;20140;49.356;8.812;2023-01-08T16:16:11;9.30;99.90
33837;DHT22;20140;49.356;8.812;2023-01-08T16:18:37;9.30;99.90
33837;DHT22;20140;49.356;8.812;2023-01-08T16:21:04;9.30;99.90
33837;DHT22;20140;49.356;8.812;2023-01-08T16:23:31;9.30;99.90
33837;DHT22;20140;49.356;8.812;2023-01-08T16:25:57;9.30;99.90
33837;DHT22;20140;49.356;8.812;2023-01-08T16:28:22;9.30;99.90
33837;DHT22;20140;49.356;8.812;2023-01-08T16:30:49;9.30;99.90
33837;DHT22;20140;49.356;8.812;2023-01-08T16:33:14;9.30;99.90
33837;DHT22;20140;49.356;8.812;2023-01-08T16:35:40;9.20;99.90
33837;DHT22;20140;49.356;8.812;2023-01-08T16:38:06;9.30;99.90
33837;DHT22;20140;49.356;8.812;2023-01-08T16:40:32;9.20;99.90
33837;DHT22;20140;49.356;8.812;2023-01-08T16:42:59;9.20;99.90
33837;DHT22;20140;49.356;8.812;2023-01-08T16:45:28;9.10;99.90
33837;DHT22;20140;49.356;8.812;2023-01-08T16:47:54;9.20;99.90
33837;DHT22;20140;49.356;8.812;2023-01-08T16:50:19;9.20;99.90
33837;DHT22;20140;49.356;8.812;2023-01-08T16:52:45;9.10;99.90
33837;DHT22;20140;49.356;8.812;2023-01-08T16:55:10;9.10;99.90
33837;DHT22;20140;49.356;8.812;2023-01-08T16:57:36;9.10;99.90